Time;durP1;ratioP1;P1;durP2;ratioP2;P2;SDS_P1;SDS_P2;PMS_P1;PMS_P2;Temp;Humidity;BMP_temperature;BMP_pressure;BME280_temperature;BME280_humidity;BME280_pressure;Samples;Min_cycle;Max_cycle;Signal;HPM_P1;HPM_P2
2024/01/02 00:01:49;;;;;;;74.35;39.03;;;;;;;13.24;61.47;100385.88;5088346;28;20016;-77
2024/01/02 00:04:16;;;;;;;64.30;37.30;;;;;;;13.19;61.85;100388.13;5088730;28;20059;-77
2024/01/02 00:06:41;;;;;;;61.55;39.63;;;;;;;13.10;62.14;100379.06;5089079;28;20027;-77
2024/01/02 00:09:07;;;;;;;58.55;36.45;;;;;;;13.03;62.58;100389.56;5089820;28;20468;-78
2024/01/02 00:11:32;;;;;;;63.22;39.63;;;;;;;12.88;62.98;100374.84;5088633;28;20027;-76
2024/01/02 00:13:58;;;;;;;56.90;35.95;;;;;;;13.00;62.50;100391.72;5097586;28;20028;-79
2024/01/02 00:16:23;;;;;;;50.65;35.90;;;;;;;12.95;62.95;100375.97;5098114;28;20078;-77
2024/01/02 00:18:49;;;;;;;67.75;34.25;;;;;;;13.12;62.81;100404.06;5087867;28;20121;-78
2024/01/02 00:21:14;;;;;;;59.45;34.35;;;;;;;13.13;62.52;100405.78;5086745;28;20519;-76
2024/01/02 00:23:40;;;;;;;47.85;31.20;;;;;;;13.09;62.73;100405.22;5087858;28;20028;-78
2024/01/02 00:26:05;;;;;;;59.45;34.08;;;;;;;13.05;62.89;100401.09;5087751;28;20117;-78
2024/01/02 00:28:31;;;;;;;48.50;32.58;;;;;;;13.05;62.76;100409.19;5087764;28;20035;-77
2024/01/02 00:30:56;;;;;;;41.90;29.98;;;;;;;13.01;62.94;100415.88;5087966;28;20024;-77
2024/01/02 00:33:22;;;;;;;44.45;29.55;;;;;;;12.99;63.03;100415.19;5088447;28;20024;-76
2024/01/02 00:35:47;;;;;;;44.67;30.55;;;;;;;13.01;63.15;100417.72;5087790;28;20458;-76
2024/01/02 00:38:13;;;;;;;46.38;31.70;;;;;;;12.88;63.39;100392.88;5087557;28;20028;-78
2024/01/02 00:40:39;;;;;;;49.95;31.15;;;;;;;13.00;63.30;100411.47;5087428;28;20419;-76
2024/01/02 00:43:04;;;;;;;48.60;30.98;;;;;;;13.06;62.93;100442.41;5087817;28;20020;-75
2024/01/02 00:45:30;;;;;;;44.83;30.38;;;;;;;12.93;63.21;100421.16;5087493;28;20024;-76
2024/01/02 00:47:56;;;;;;;48.20;32.08;;;;;;;12.93;63.43;100426.56;5087832;28;20106;-77
2024/01/02 00:50:22;;;;;;;50.60;32.58;;;;;;;12.85;63.29;100418.31;5087786;28;20498;-77
2024/01/02 00:52:48;;;;;;;58.00;32.67;;;;;;;12.95;63.57;100429.97;5088080;28;20020;-77
2024/01/02 00:55:15;;;;;;;62.03;34.22;;;;;;;12.90;63.18;100428.69;5091113;28;20110;-77
2024/01/02 00:57:40;;;;;;;48.13;33.63;;;;;;;12.83;63.58;100420.31;5093779;28;20028;-77
2024/01/02 01:00:06;;;;;;;53.60;32.75;;;;;;;12.82;63.97;100418.59;5092982;28;20026;-77
2024/01/02 01:02:32;;;;;;;45.90;32.05;;;;;;;12.81;64.00;100421.47;5092375;28;20110;-75
2024/01/02 01:04:58;;;;;;;48.25;34.63;;;;;;;12.80;63.94;100426.00;5101591;28;20063;-77
2024/01/02 01:07:23;;;;;;;49.55;32.20;;;;;;;12.68;64.13;100407.41;5101812;28;20503;-75
2024/01/02 01:09:49;;;;;;;50.70;32.50;;;;;;;12.59;64.03;100389.38;5092276;28;20036;-80
2024/01/02 01:12:14;;;;;;;44.75;31.27;;;;;;;12.69;64.21;100409.94;5091682;28;20472;-76
2024/01/02 01:14:40;;;;;;;47.55;31.52;;;;;;;12.70;64.38;100410.81;5092731;28;20099;-76
2024/01/02 01:17:06;;;;;;;45.05;29.45;;;;;;;12.68;64.24;100408.25;5090315;28;20047;-77
2024/01/02 01:19:32;;;;;;;45.65;29.30;;;;;;;12.70;64.10;100406.25;5093860;28;20201;-77
2024/01/02 01:21:58;;;;;;;41.88;29.10;;;;;;;12.77;64.14;100409.25;5091302;28;20031;-77
2024/01/02 01:24:23;;;;;;;48.22;31.05;;;;;;;12.77;64.55;100391.22;5090608;28;20093;-76
2024/01/02 01:26:52;;;;;;;44.65;30.25;;;;;;;12.79;64.29;100391.91;5090924;28;20071;-74
2024/01/02 01:29:20;;;;;;;44.80;27.35;;;;;;;12.74;64.00;100367.22;5091010;28;20028;-77
2024/01/02 01:31:46;;;;;;;42.70;27.30;;;;;;;12.76;64.20;100386.78;5091056;28;20131;-76
2024/01/02 01:34:11;;;;;;;38.78;28.35;;;;;;;12.73;64.30;100387.09;5090878;28;20107;-76
2024/01/02 01:36:37;;;;;;;47.50;29.75;;;;;;;12.82;64.20;100402.41;5090498;28;20089;-77
2024/01/02 01:39:04;;;;;;;53.97;35.40;;;;;;;12.75;64.20;100390.47;5091064;28;20028;-78
2024/01/02 01:41:31;;;;;;;54.25;35.60;;;;;;;12.83;64.25;100412.22;5090628;28;20085;-77
2024/01/02 01:43:57;;;;;;;55.05;35.55;;;;;;;12.74;64.19;100388.78;5091092;28;20027;-75
2024/01/02 01:46:25;;;;;;;60.42;37.35;;;;;;;12.80;64.24;100409.81;5090719;28;20059;-77
2024/01/02 01:48:51;;;;;;;66.70;38.22;;;;;;;12.82;64.17;100402.41;5091895;28;20032;-76
2024/01/02 01:51:17;;;;;;;60.28;36.60;;;;;;;12.80;63.96;100396.31;5091468;28;20043;-75
2024/01/02 01:53:45;;;;;;;54.83;35.88;;;;;;;12.86;64.11;100411.94;5090961;28;20020;-76
2024/01/02 01:56:12;;;;;;;58.08;38.67;;;;;;;12.74;64.26;100410.38;5102906;28;20107;-76
2024/01/02 01:58:38;;;;;;;61.92;37.55;;;;;;;12.71;64.19;100415.22;5101564;28;20024;-78
2024/01/02 02:01:04;;;;;;;57.53;40.08;;;;;;;12.64;64.58;100419.47;5090914;28;20036;-78
2024/01/02 02:03:30;;;;;;;61.47;39.95;;;;;;;12.63;64.51;100423.19;5090411;28;20415;-75
2024/01/02 02:05:57;;;;;;;69.32;41.85;;;;;;;12.52;65.12;100418.78;5089988;28;20032;-76
2024/01/02 02:08:23;;;;;;;65.50;42.60;;;;;;;12.50;65.02;100415.38;5090019;28;20315;-76
2024/01/02 02:10:48;;;;;;;64.90;41.60;;;;;;;12.51;64.91;100425.16;5090066;28;20062;-75
2024/01/02 02:13:14;;;;;;;69.13;40.78;;;;;;;12.41;64.85;100409.00;5090600;28;20024;-77
2024/01/02 02:15:41;;;;;;;61.17;39.25;;;;;;;12.28;65.19;100419.19;5088520;28;20063;-76
2024/01/02 02:18:08;;;;;;;70.30;40.95;;;;;;;12.21;65.67;100423.44;5090446;28;20066;-77
2024/01/02 02:20:33;;;;;;;59.38;40.00;;;;;;;12.15;65.60;100421.31;5088383;28;20051;-77
2024/01/02 02:22:59;;;;;;;63.92;42.17;;;;;;;12.13;66.06;100442.16;5089854;28;20056;-78
2024/01/02 02:25:24;;;;;;;57.38;39.95;;;;;;;12.14;65.98;100434.94;5089774;28;20143;-75
2024/01/02 02:27:50;;;;;;;64.38;42.13;;;;;;;12.16;66.22;100441.88;5090058;28;20453;-79
2024/01/02 02:30:15;;;;;;;62.85;40.25;;;;;;;12.05;66.28;100416.91;5089916;28;20147;-76
2024/01/02 02:32:41;;;;;;;61.00;40.80;;;;;;;12.21;66.07;100438.75;5089680;28;20050;-76
2024/01/02 02:35:08;;;;;;;55.78;37.70;;;;;;;12.24;66.16;100433.09;5089433;28;20059;-77
2024/01/02 02:37:33;;;;;;;62.38;40.67;;;;;;;12.22;66.26;100437.78;5090219;28;20059;-77
2024/01/02 02:39:59;;;;;;;58.28;38.85;;;;;;;12.13;66.06;100438.63;5090567;28;20070;-78
2024/01/02 02:42:25;;;;;;;66.43;39.20;;;;;;;11.96;66.41;100411.34;5090403;28;20024;-75
2024/01/02 02:44:50;;;;;;;63.42;39.15;;;;;;;12.11;66.46;100437.91;5090370;28;20032;-79
2024/01/02 02:47:16;;;;;;;62.08;39.13;;;;;;;12.08;66.86;100425.53;5099813;28;20043;-76
2024/01/02 02:49:42;;;;;;;50.65;37.65;;;;;;;12.08;66.76;100406.66;5098349;28;20507;-76
2024/01/02 02:52:08;;;;;;;70.45;41.50;;;;;;;12.15;66.67;100413.22;5089511;28;20035;-76
2024/01/02 02:54:33;;;;;;;64.78;39.88;;;;;;;12.15;66.56;100409.66;5090401;28;20532;-76
2024/01/02 02:56:59;;;;;;;59.03;38.53;;;;;;;12.16;66.67;100404.16;5089511;28;20029;-78
2024/01/02 02:59:25;;;;;;;57.63;38.60;;;;;;;12.17;66.41;100405.00;5087730;28;20416;-76
2024/01/02 03:01:50;;;;;;;54.80;37.15;;;;;;;12.12;66.50;100404.56;5088202;28;20506;-76
2024/01/02 03:04:16;;;;;;;60.75;37.63;;;;;;;11.88;66.71;100388.78;5089294;28;20066;-76
2024/01/02 03:06:41;;;;;;;53.22;35.60;;;;;;;11.93;67.49;100411.63;5089355;28;20043;-75
2024/01/02 03:09:07;;;;;;;61.05;36.25;;;;;;;12.00;67.07;100404.69;5089318;28;20028;-76
2024/01/02 03:11:32;;;;;;;60.38;36.45;;;;;;;12.06;66.95;100408.66;5089493;28;20021;-76
2024/01/02 03:13:58;;;;;;;52.88;33.30;;;;;;;12.09;66.55;100410.22;5089821;28;20555;-77
2024/01/02 03:16:24;;;;;;;53.13;36.20;;;;;;;12.05;66.95;100416.91;5088937;28;20070;-78
2024/01/02 03:18:50;;;;;;;52.85;35.25;;;;;;;11.97;66.59;100396.88;5087622;28;20032;-75
2024/01/02 03:21:16;;;;;;;47.25;33.28;;;;;;;12.10;66.75;100417.31;5088933;28;20027;-77
2024/01/02 03:23:42;;;;;;;58.70;34.70;;;;;;;12.19;66.78;100429.97;5089262;28;20024;-78
2024/01/02 03:26:11;;;;;;;61.25;39.25;;;;;;;12.18;66.57;100436.34;5088709;28;20047;-76
2024/01/02 03:28:37;;;;;;;59.53;39.10;;;;;;;12.08;66.39;100413.94;5088948;28;20103;-78
2024/01/02 03:31:03;;;;;;;59.92;37.33;;;;;;;12.15;66.23;100423.13;5090321;28;20113;-76
2024/01/02 03:33:29;;;;;;;54.95;37.63;;;;;;;12.14;66.18;100426.84;5088942;28;20563;-77
2024/01/02 03:35:54;;;;;;;61.83;37.17;;;;;;;12.14;65.80;100432.25;5089868;28;20034;-76
2024/01/02 03:38:20;;;;;;;55.42;38.38;;;;;;;12.15;66.39;100429.38;5097209;28;20024;-76
2024/01/02 03:40:45;;;;;;;61.50;37.78;;;;;;;12.16;66.07;100424.84;5095682;28;20032;-75
2024/01/02 03:43:11;;;;;;;68.10;41.17;;;;;;;11.85;65.94;100378.28;5088661;28;20902;-75
2024/01/02 03:45:37;;;;;;;75.10;42.40;;;;;;;12.13;66.03;100436.78;5087075;28;20040;-77
2024/01/02 03:48:03;;;;;;;70.55;42.72;;;;;;;11.82;66.32;100384.78;5068995;28;20503;-77
2024/01/02 03:50:28;;;;;;;68.32;40.80;;;;;;;12.12;66.04;100431.50;5088448;28;20028;-77
2024/01/02 03:52:54;;;;;;;83.25;43.13;;;;;;;12.08;66.48;100419.31;5088559;28;20039;-77
2024/01/02 03:55:19;;;;;;;80.80;43.17;;;;;;;11.96;66.55;100414.03;5088430;28;20119;-76
2024/01/02 03:57:45;;;;;;;84.13;44.78;;;;;;;12.07;66.10;100441.88;5088313;28;20081;-77
2024/01/02 04:00:11;;;;;;;75.20;45.90;;;;;;;12.03;66.62;100443.97;5085774;28;20120;-78
2024/01/02 04:02:37;;;;;;;81.25;46.45;;;;;;;11.86;66.53;100420.41;5088154;28;20675;-76
2024/01/02 04:05:03;;;;;;;74.80;45.78;;;;;;;11.98;67.03;100457.88;5088219;28;20031;-78
2024/01/02 04:07:29;;;;;;;77.15;46.45;;;;;;;11.93;66.59;100441.25;5089137;28;20454;-77
2024/01/02 04:09:55;;;;;;;72.93;43.58;;;;;;;12.09;67.11;100464.13;5088082;28;20476;-77
2024/01/02 04:12:21;;;;;;;49.88;30.98;;;;;;;12.05;66.69;100455.47;5088217;28;20031;-77
2024/01/02 04:14:46;;;;;;;30.17;20.08;;;;;;;12.09;65.31;100453.34;5087918;28;20058;-75
2024/01/02 04:17:12;;;;;;;27.20;18.23;;;;;;;12.14;64.36;100469.97;5087789;28;20074;-77
2024/01/02 04:19:37;;;;;;;24.63;14.73;;;;;;;12.10;63.76;100466.72;5088549;28;20064;-77
2024/01/02 04:22:04;;;;;;;26.02;15.70;;;;;;;12.09;63.36;100483.00;5088742;28;20024;-77
2024/01/02 04:24:30;;;;;;;22.55;14.60;;;;;;;12.15;63.64;100460.88;5088309;28;20443;-77
2024/01/02 04:26:55;;;;;;;23.23;14.05;;;;;;;12.20;63.02;100477.53;5093324;28;20044;-77
2024/01/02 04:29:21;;;;;;;23.13;14.27;;;;;;;12.06;62.99;100440.16;5102441;28;20050;-79
2024/01/02 04:31:46;;;;;;;20.77;15.18;;;;;;;12.19;62.66;100456.94;5098433;28;20111;-76
2024/01/02 04:34:12;;;;;;;23.10;15.70;;;;;;;12.26;63.23;100467.00;5092672;28;20031;-80
2024/01/02 04:36:40;;;;;;;19.20;14.85;;;;;;;12.17;63.02;100448.97;5091359;28;20609;-76
2024/01/02 04:39:06;;;;;;;23.05;14.20;;;;;;;12.23;62.73;100444.88;5092413;28;20085;-78
2024/01/02 04:41:32;;;;;;;19.40;13.60;;;;;;;12.35;62.22;100455.38;5092524;28;20028;-77
2024/01/02 04:43:57;;;;;;;19.42;14.02;;;;;;;12.44;61.35;100457.25;5092226;28;20503;-76
2024/01/02 04:46:23;;;;;;;21.63;13.07;;;;;;;12.40;61.78;100461.22;5089544;28;20077;-78
2024/01/02 04:48:49;;;;;;;20.83;13.45;;;;;;;12.46;61.11;100470.59;5091866;28;20426;-78
2024/01/02 04:51:14;;;;;;;19.65;12.80;;;;;;;12.27;60.91;100448.97;5091813;28;20035;-76
2024/01/02 04:53:40;;;;;;;18.20;13.18;;;;;;;12.31;60.82;100466.59;5091546;28;20028;-77
2024/01/02 04:56:06;;;;;;;17.92;12.57;;;;;;;12.27;60.69;100452.53;5091980;28;20044;-78
2024/01/02 04:58:32;;;;;;;20.65;12.10;;;;;;;12.23;60.32;100437.63;5091564;28;20035;-77
2024/01/02 05:00:57;;;;;;;18.10;13.02;;;;;;;12.43;60.25;100462.78;5091715;28;20024;-76
2024/01/02 05:03:23;;;;;;;17.13;11.23;;;;;;;12.36;59.59;100440.06;5091907;28;20024;-79
2024/01/02 05:05:48;;;;;;;14.77;10.43;;;;;;;12.59;59.55;100483.81;5091323;28;20028;-77
2024/01/02 05:08:14;;;;;;;18.88;10.63;;;;;;;12.36;59.11;100432.81;5091854;28;20440;-77
2024/01/02 05:10:39;;;;;;;16.55;9.85;;;;;;;12.48;58.70;100441.63;5092303;28;20388;-76
2024/01/02 05:13:05;;;;;;;12.32;8.52;;;;;;;12.64;58.72;100462.63;5093322;28;20016;-77
2024/01/02 05:15:30;;;;;;;13.38;9.65;;;;;;;12.58;58.69;100469.47;5092177;28;20046;-78
2024/01/02 05:17:56;;;;;;;16.80;8.13;;;;;;;12.57;58.82;100468.59;5095061;28;20121;-77
2024/01/02 05:20:22;;;;;;;13.93;8.73;;;;;;;12.61;58.95;100471.00;5105741;28;20028;-77
2024/01/02 05:22:47;;;;;;;12.52;9.38;;;;;;;12.64;59.30;100476.97;5101801;28;20121;-75
2024/01/02 05:25:13;;;;;;;12.80;8.30;;;;;;;12.53;58.88;100450.16;5092533;28;20060;-76
2024/01/02 05:27:38;;;;;;;11.80;8.18;;;;;;;12.68;58.96;100475.72;5091112;28;20024;-79
2024/01/02 05:30:04;;;;;;;14.63;8.93;;;;;;;12.71;58.73;100483.53;5090786;28;20120;-80
2024/01/02 05:32:30;;;;;;;13.13;8.70;;;;;;;12.70;58.67;100484.50;5090943;28;20036;-76
2024/01/02 05:34:55;;;;;;;18.77;9.73;;;;;;;12.29;58.99;100403.88;5089227;28;20028;-79
2024/01/02 05:37:21;;;;;;;13.27;8.40;;;;;;;12.64;58.95;100474.28;5089137;28;20028;-78
2024/01/02 05:39:46;;;;;;;14.15;9.98;;;;;;;12.66;59.36;100482.25;5090117;28;20411;-78
2024/01/02 05:42:12;;;;;;;16.42;9.18;;;;;;;12.50;59.74;100455.84;5090650;28;20070;-74
2024/01/02 05:44:37;;;;;;;17.25;9.80;;;;;;;12.61;59.84;100484.50;5090644;28;20024;-78
2024/01/02 05:47:03;;;;;;;15.07;9.57;;;;;;;12.55;60.36;100481.38;5090520;28;20037;-79
2024/01/02 05:49:29;;;;;;;26.27;11.32;;;;;;;12.42;60.25;100450.28;5090280;28;20073;-74
2024/01/02 05:51:56;;;;;;;17.23;10.75;;;;;;;12.62;60.81;100487.09;5090991;28;20043;-77
2024/01/02 05:54:21;;;;;;;16.58;10.05;;;;;;;12.66;60.87;100483.09;5090113;28;20028;-75
2024/01/02 05:56:47;;;;;;;14.82;10.38;;;;;;;12.70;60.62;100480.97;5090385;28;20037;-80
2024/01/02 05:59:13;;;;;;;24.33;11.75;;;;;;;12.68;60.16;100483.81;5090358;28;20157;-77
2024/01/02 06:01:38;;;;;;;21.90;10.23;;;;;;;12.75;60.46;100493.03;5091639;28;20924;-80
2024/01/02 06:04:04;;;;;;;23.95;10.73;;;;;;;12.77;59.91;100480.25;5092251;28;20035;-78
2024/01/02 06:06:29;;;;;;;31.98;12.32;;;;;;;12.76;60.17;100483.94;5091654;28;20034;-78
2024/01/02 06:08:55;;;;;;;17.55;11.30;;;;;;;12.84;60.35;100492.16;5098505;28;20047;-77
2024/01/02 06:11:20;;;;;;;18.35;10.88;;;;;;;12.90;60.37;100501.56;5104119;28;20036;-81
2024/01/02 06:13:46;;;;;;;12.35;9.32;;;;;;;12.83;60.32;100482.38;5097414;28;20048;-77
2024/01/02 06:16:11;;;;;;;17.38;10.57;;;;;;;12.93;60.27;100512.94;5098120;28;20056;-77
2024/01/02 06:18:38;;;;;;;15.00;10.52;;;;;;;12.89;60.65;100502.56;5100857;28;20111;-77
2024/01/02 06:21:04;;;;;;;16.45;11.38;;;;;;;13.03;61.48;100523.72;5089488;28;20525;-79
2024/01/02 06:23:33;;;;;;;21.08;10.35;;;;;;;13.08;61.99;100521.47;5090271;28;20032;-77
2024/01/02 06:26:00;;;;;;;19.77;10.88;;;;;;;13.01;62.09;100515.78;5090095;28;20136;-76
2024/01/02 06:28:25;;;;;;;13.52;10.13;;;;;;;12.96;62.29;100518.06;5089620;28;20052;-76
2024/01/02 06:30:51;;;;;;;20.17;12.75;;;;;;;12.99;62.63;100522.31;5087253;28;20040;-75
2024/01/02 06:33:16;;;;;;;16.17;10.40;;;;;;;12.92;62.88;100530.13;5088622;28;20027;-75
2024/01/02 06:35:42;;;;;;;16.58;10.77;;;;;;;12.75;63.58;100503.00;5089209;28;20031;-76
2024/01/02 06:38:09;;;;;;;18.60;10.13;;;;;;;12.92;63.87;100548.16;5089299;28;20125;-76
2024/01/02 06:40:35;;;;;;;15.98;11.68;;;;;;;12.89;63.99;100543.03;5089630;28;20032;-77
2024/01/02 06:43:01;;;;;;;19.02;10.77;;;;;;;12.87;64.38;100548.56;5088923;28;20031;-76
2024/01/02 06:45:26;;;;;;;15.20;11.02;;;;;;;12.85;64.33;100541.59;5089210;28;20112;-76
2024/01/02 06:47:52;;;;;;;14.05;10.10;;;;;;;12.65;64.53;100526.41;5089550;28;20154;-77
2024/01/02 06:50:18;;;;;;;19.45;11.75;;;;;;;12.63;64.71;100523.84;5089731;28;20067;-78
2024/01/02 06:52:43;;;;;;;16.13;11.05;;;;;;;12.62;64.74;100530.25;5089756;28;20497;-76
2024/01/02 06:55:09;;;;;;;14.93;9.82;;;;;;;12.60;65.09;100556.50;5091073;28;20361;-74
2024/01/02 06:57:34;;;;;;;21.90;11.52;;;;;;;12.50;65.40;100547.56;5090397;28;20443;-76
2024/01/02 07:00:00;;;;;;;13.32;9.77;;;;;;;12.39;66.23;100539.56;5102584;28;20031;-80
2024/01/02 07:02:25;;;;;;;17.80;10.25;;;;;;;12.33;66.71;100537.41;5097997;28;20519;-77
2024/01/02 07:04:51;;;;;;;14.10;11.20;;;;;;;12.36;66.79;100540.69;5087732;28;20539;-78
2024/01/02 07:07:16;;;;;;;20.92;11.18;;;;;;;12.43;67.34;100568.81;5089675;28;20123;-78
2024/01/02 07:09:42;;;;;;;17.25;11.38;;;;;;;12.36;67.57;100551.47;5088968;28;20028;-76
2024/01/02 07:12:07;;;;;;;25.30;13.27;;;;;;;12.34;68.29;100547.22;5088616;28;20532;-79
2024/01/02 07:14:33;;;;;;;24.67;13.20;;;;;;;12.44;69.27;100567.00;5089228;28;20028;-75
2024/01/02 07:16:59;;;;;;;21.85;14.55;;;;;;;12.18;69.01;100525.31;5088605;28;20032;-75
2024/01/02 07:19:25;;;;;;;22.92;14.13;;;;;;;12.27;68.79;100557.69;5089809;28;20068;-74
2024/01/02 07:21:50;;;;;;;22.67;12.95;;;;;;;12.21;69.52;100552.00;5088419;28;20035;-75
2024/01/02 07:24:16;;;;;;;21.50;12.15;;;;;;;12.23;69.33;100566.22;5089228;28;20028;-78
2024/01/02 07:26:42;;;;;;;16.35;11.82;;;;;;;12.17;69.25;100555.97;5088567;28;20083;-75
2024/01/02 07:29:08;;;;;;;19.98;13.20;;;;;;;12.02;69.87;100541.16;5089071;28;20447;-77
2024/01/02 07:31:35;;;;;;;27.15;15.15;;;;;;;12.07;70.43;100549.69;5088577;28;20027;-78
2024/01/02 07:34:01;;;;;;;25.05;13.95;;;;;;;12.08;70.23;100564.88;5088615;28;20496;-78
2024/01/02 07:36:27;;;;;;;27.63;15.43;;;;;;;11.85;69.95;100530.03;5088470;28;20077;-77
2024/01/02 07:38:53;;;;;;;19.40;12.90;;;;;;;11.79;70.87;100529.72;5089329;28;20031;-74
2024/01/02 07:41:18;;;;;;;19.70;11.57;;;;;;;11.99;70.99;100563.84;5089730;28;20040;-77
2024/01/02 07:43:44;;;;;;;24.58;12.88;;;;;;;11.81;70.79;100551.97;5089370;28;20055;-76
2024/01/02 07:46:09;;;;;;;16.58;10.40;;;;;;;11.83;71.17;100564.31;5089920;28;20020;-79
2024/01/02 07:48:35;;;;;;;19.00;11.13;;;;;;;11.69;71.59;100548.50;5089784;28;20024;-77
2024/01/02 07:51:00;;;;;;;20.15;11.73;;;;;;;11.71;71.30;100570.78;5098462;28;20760;-79
2024/01/02 07:53:25;;;;;;;22.70;11.32;;;;;;;11.64;71.94;100553.44;5096252;28;20057;-78
2024/01/02 07:55:51;;;;;;;19.17;9.80;;;;;;;11.69;71.31;100578.13;5087963;28;20440;-81
2024/01/02 07:58:16;;;;;;;13.45;9.77;;;;;;;11.64;71.54;100579.50;5088426;28;20106;-77
2024/01/02 08:00:42;;;;;;;16.08;9.18;;;;;;;11.59;71.85;100560.22;5086532;28;20024;-76
2024/01/02 08:03:09;;;;;;;18.50;11.15;;;;;;;11.47;72.18;100562.09;5088140;28;20442;-76
2024/01/02 08:05:35;;;;;;;17.08;9.88;;;;;;;11.58;72.51;100583.59;5088293;28;20500;-78
2024/01/02 08:08:02;;;;;;;13.13;10.23;;;;;;;11.63;72.72;100575.97;5088377;28;20103;-78
2024/01/02 08:10:28;;;;;;;22.10;10.90;;;;;;;11.45;72.87;100564.94;5088394;28;20092;-78
2024/01/02 08:12:53;;;;;;;17.85;10.65;;;;;;;11.58;72.73;100580.91;5092638;28;20031;-78
2024/01/02 08:15:19;;;;;;;17.85;10.98;;;;;;;11.29;73.53;100539.44;5094919;28;20107;-77
2024/01/02 08:17:44;;;;;;;16.13;11.32;;;;;;;11.59;73.69;100585.28;5094616;28;20082;-77
2024/01/02 08:20:10;;;;;;;20.85;11.60;;;;;;;11.62;74.07;100600.34;5077062;28;20059;-77
2024/01/02 08:22:36;;;;;;;22.92;14.07;;;;;;;11.59;74.16;100609.53;5093400;28;20132;-78
2024/01/02 08:25:01;;;;;;;25.52;13.90;;;;;;;11.58;74.40;100602.47;5094899;28;20107;-77
2024/01/02 08:27:27;;;;;;;20.88;12.20;;;;;;;11.70;74.79;100617.59;5089605;28;20092;-78
2024/01/02 08:29:54;;;;;;;18.85;12.13;;;;;;;11.65;74.24;100606.31;5085961;28;20032;-78
2024/01/02 08:32:20;;;;;;;17.35;12.57;;;;;;;11.60;74.77;100622.03;5085266;28;20044;-79
2024/01/02 08:34:45;;;;;;;21.17;13.45;;;;;;;11.58;75.01;100621.31;5087655;28;20187;-77
2024/01/02 08:37:11;;;;;;;27.67;16.25;;;;;;;11.54;74.94;100627.94;5087523;28;20488;-77
2024/01/02 08:39:36;;;;;;;27.08;15.88;;;;;;;11.27;75.44;100624.88;5090255;28;20064;-79
2024/01/02 08:42:02;;;;;;;25.50;15.30;;;;;;;11.28;76.37;100611.28;5101652;28;20038;-76
2024/01/02 08:44:28;;;;;;;17.90;11.85;;;;;;;11.21;76.63;100593.09;5093736;28;20067;-77
2024/01/02 08:46:53;;;;;;;14.77;10.52;;;;;;;11.29;77.02;100618.38;5085938;28;20036;-78
2024/01/02 08:49:19;;;;;;;18.35;10.85;;;;;;;11.29;77.78;100628.28;5084812;28;20572;-78
2024/01/02 08:51:44;;;;;;;19.50;12.35;;;;;;;11.06;77.90;100618.63;5068378;28;20574;-79
2024/01/02 08:54:10;;;;;;;17.92;11.55;;;;;;;10.61;79.20;100554.19;5085326;28;20036;-78
2024/01/02 08:56:35;;;;;;;18.15;10.68;;;;;;;10.87;79.41;100613.91;5087952;28;20066;-78
2024/01/02 08:59:02;;;;;;;16.50;10.15;;;;;;;10.93;80.14;100621.47;5088139;28;20024;-78
2024/01/02 09:01:28;;;;;;;14.52;9.55;;;;;;;10.83;80.83;100613.31;5088039;28;20507;-77
2024/01/02 09:03:54;;;;;;;17.17;10.05;;;;;;;10.70;80.98;100609.06;5088506;28;20028;-79
2024/01/02 09:06:19;;;;;;;17.10;10.32;;;;;;;10.66;81.57;100603.09;5087907;28;20042;-77
2024/01/02 09:08:46;;;;;;;14.40;8.30;;;;;;;10.60;82.36;100582.06;5087575;28;20395;-81
2024/01/02 09:11:15;;;;;;;21.42;9.93;;;;;;;10.75;83.00;100605.03;5087418;28;20046;-78
2024/01/02 09:13:40;;;;;;;15.20;9.48;;;;;;;10.64;82.67;100594.28;5087381;28;20142;-79
2024/01/02 09:16:07;;;;;;;18.77;10.23;;;;;;;10.68;83.00;100608.31;5089808;28;20281;-80
2024/01/02 09:18:33;;;;;;;18.05;9.40;;;;;;;10.59;83.75;100580.34;5092625;28;20032;-81
2024/01/02 09:20:59;;;;;;;21.27;11.13;;;;;;;10.64;83.70;100586.19;5092150;28;20415;-77
2024/01/02 09:23:24;;;;;;;14.25;10.07;;;;;;;10.68;83.96;100573.38;5092822;28;20027;-80
2024/01/02 09:25:51;;;;;;;16.15;10.18;;;;;;;10.47;83.57;100562.53;5097909;28;20539;-78
2024/01/02 09:28:21;;;;;;;13.98;10.57;;;;;;;10.62;83.51;100579.25;5091513;28;20346;-79
2024/01/02 09:30:46;;;;;;;15.18;8.90;;;;;;;10.62;84.32;100585.47;5096967;28;20036;-80
2024/01/02 09:33:12;;;;;;;17.33;10.60;;;;;;;10.53;83.72;100575.47;5101634;28;20122;-77
2024/01/02 09:35:38;;;;;;;12.13;8.77;;;;;;;10.64;83.51;100583.50;5094388;28;20032;-76
2024/01/02 09:38:04;;;;;;;15.98;9.00;;;;;;;10.40;83.44;100552.44;5091408;28;20810;-79
2024/01/02 09:40:44;;;;;;;10.95;8.57;;;;;;;10.54;82.54;100582.59;5088790;28;20028;-77
2024/01/02 09:43:18;;;;;;;14.38;7.63;;;;;;;10.59;82.66;100579.50;5088419;28;20495;-76
2024/01/02 09:46:03;;;;;;;13.63;8.85;;;;;;;10.38;82.27;100556.09;5088414;28;20479;-77
2024/01/02 09:48:59;;;;;;;11.45;7.13;;;;;;;10.51;81.77;100576.59;5087653;28;20128;-77
2024/01/02 09:51:39;;;;;;;12.30;7.05;;;;;;;10.48;81.60;100552.66;5088307;28;20028;-78
2024/01/02 09:54:21;;;;;;;8.88;7.28;;;;;;;10.54;81.64;100555.69;5088154;28;20499;-82
2024/01/02 09:56:56;;;;;;;12.98;8.00;;;;;;;10.43;81.57;100536.88;5087598;28;20035;-80
2024/01/02 09:59:38;;;;;;;11.55;6.75;;;;;;;10.51;81.76;100569.38;5088102;28;20024;-77
2024/01/02 10:02:13;;;;;;;8.82;6.47;;;;;;;10.51;81.54;100566.69;5071645;28;20456;-78
2024/01/02 10:04:50;;;;;;;10.27;6.35;;;;;;;10.48;81.34;100571.47;5088025;28;20062;-80
2024/01/02 10:07:31;;;;;;;13.57;7.43;;;;;;;10.36;81.29;100573.34;5088046;28;20044;-79
2024/01/02 10:10:36;;;;;;;13.55;8.48;;;;;;;10.48;81.44;100549.97;5088540;28;20519;-80
2024/01/02 10:13:21;;;;;;;13.55;7.22;;;;;;;10.50;81.34;100553.38;5048736;28;20102;-79
2024/01/02 10:15:46;;;;;;;12.75;7.07;;;;;;;10.25;81.07;100524.94;5050588;28;20514;-80
2024/01/02 10:18:32;;;;;;;11.43;7.10;;;;;;;10.55;80.92;100560.06;5049979;28;20029;-80
2024/01/02 10:21:13;;;;;;;11.98;7.28;;;;;;;10.66;80.68;100554.69;5057273;28;20139;-81
2024/01/02 10:23:43;;;;;;;10.35;7.75;;;;;;;10.69;80.59;100562.50;5065820;28;20021;-81
2024/01/02 10:26:09;;;;;;;11.15;6.82;;;;;;;10.62;79.83;100547.84;5050704;28;20064;-80
2024/01/02 10:28:38;;;;;;;10.75;7.03;;;;;;;10.39;79.86;100503.19;5047466;28;20041;-79
2024/01/02 10:31:31;;;;;;;9.40;6.93;;;;;;;10.69;79.76;100543.66;5047061;28;20060;-79
2024/01/02 10:34:10;;;;;;;;;;;;;;;10.77;78.99;100557.31;5047342;28;20047;-77
2024/01/02 10:36:41;;;;;;;7.80;6.13;;;;;;;10.81;79.29;100550.72;5046614;28;19916;-78
2024/01/02 10:39:35;;;;;;;8.98;5.88;;;;;;;10.66;78.53;100527.78;5046855;28;20032;-80
2024/01/02 10:42:19;;;;;;;8.98;6.32;;;;;;;10.87;78.75;100544.81;5046711;28;20032;-79
2024/01/02 10:44:51;;;;;;;15.65;7.32;;;;;;;10.94;78.81;100553.22;5029269;28;20528;-81
2024/01/02 10:47:29;;;;;;;10.63;7.25;;;;;;;10.98;78.55;100548.44;5073128;28;20036;-77
2024/01/02 10:49:59;;;;;;;8.18;5.63;;;;;;;11.04;78.20;100548.75;5089084;28;20114;-76
2024/01/02 10:52:59;;;;;;;9.70;6.20;;;;;;;11.01;78.28;100545.50;5088974;28;20028;-78
2024/01/02 10:55:30;;;;;;;8.32;6.38;;;;;;;10.93;77.82;100517.38;5066159;28;20044;-78
2024/01/02 10:58:06;;;;;;;15.70;7.47;;;;;;;10.87;77.83;100530.50;5066142;28;20488;-76
2024/01/02 11:00:42;;;;;;;8.80;6.55;;;;;;;10.86;77.74;100528.78;5033069;28;20045;-76
2024/01/02 11:03:10;;;;;;;8.35;6.57;;;;;;;10.91;78.24;100526.59;5049815;28;20442;-78
2024/01/02 11:05:43;;;;;;;11.15;7.10;;;;;;;10.89;78.18;100518.63;5068761;28;20044;-78
2024/01/02 11:08:24;;;;;;;9.50;6.68;;;;;;;10.93;78.10;100546.13;5069242;28;20036;-79
2024/01/02 11:10:59;;;;;;;10.93;7.07;;;;;;;10.88;78.78;100522.31;5072387;28;20167;-79
2024/01/02 11:13:27;;;;;;;8.63;6.70;;;;;;;10.87;78.65;100506.28;5079981;28;20028;-77